Time;durP1;ratioP1;P1;durP2;ratioP2;P2;SDS_P1;SDS_P2;PMS_P1;PMS_P2;Temp;Humidity;BMP_temperature;BMP_pressure;BME280_temperature;BME280_humidity;BME280_pressure;Samples;Min_cycle;Max_cycle;Signal;HPM_P1;HPM_P2
2023/10/06 00:02:14;;;;;;;;;;;14.90;99.90;;;;;;5115558;28;20012;-44
2023/10/06 00:04:41;;;;;;;;;;;14.90;99.90;;;;;;5113909;28;19927;-43
2023/10/06 00:07:08;;;;;;;;;;;14.90;99.90;;;;;;5114266;28;19924;-42
2023/10/06 00:09:34;;;;;;;;;;;14.90;99.90;;;;;;5115281;28;20374;-42
2023/10/06 00:12:01;;;;;;;;;;;14.90;99.90;;;;;;5114514;28;19931;-42
2023/10/06 00:14:39;;;;;;;;;;;14.90;99.90;;;;;;5115351;28;19924;-43
2023/10/06 00:17:17;;;;;;;;;;;14.90;99.90;;;;;;5115389;27;19923;-43
2023/10/06 00:19:43;;;;;;;;;;;14.90;99.90;;;;;;5115029;28;19923;-42
2023/10/06 00:24:41;;;;;;;;;;;14.80;99.90;;;;;;5115299;28;19931;-42
2023/10/06 00:27:11;;;;;;;;;;;14.90;99.90;;;;;;5115236;28;19971;-42
2023/10/06 00:29:54;;;;;;;;;;;14.80;99.90;;;;;;5114913;28;20283;-44
2023/10/06 00:32:22;;;;;;;;;;;14.90;99.90;;;;;;5114076;28;19935;-43
2023/10/06 00:34:48;;;;;;;;;;;14.80;99.90;;;;;;5114325;28;19927;-42
2023/10/06 00:37:15;;;;;;;;;;;14.80;99.90;;;;;;5114987;28;19932;-42
2023/10/06 00:39:42;;;;;;;;;;;14.80;99.90;;;;;;5115145;28;19924;-42
2023/10/06 00:42:08;;;;;;;;;;;14.80;99.90;;;;;;5114778;28;19924;-42
2023/10/06 00:44:35;;;;;;;;;;;14.80;99.90;;;;;;5114725;28;19947;-42
2023/10/06 00:47:05;;;;;;;;;;;14.90;99.90;;;;;;5114822;28;19954;-42
2023/10/06 00:49:34;;;;;;;;;;;14.80;99.90;;;;;;5115202;28;19923;-42
2023/10/06 00:52:01;;;;;;;;;;;14.90;99.90;;;;;;5114059;28;20394;-42
2023/10/06 00:54:27;;;;;;;;;;;14.90;99.90;;;;;;5114684;28;19923;-42
2023/10/06 00:56:57;;;;;;;;;;;14.90;99.90;;;;;;5114611;28;19930;-42
2023/10/06 00:59:26;;;;;;;;;;;14.90;99.90;;;;;;5114549;28;20016;-42
2023/10/06 01:01:52;;;;;;;;;;;14.90;99.90;;;;;;5115046;28;19923;-42
2023/10/06 01:04:24;;;;;;;;;;;14.90;99.90;;;;;;5114626;28;19928;-42
2023/10/06 01:06:54;;;;;;;;;;;14.90;99.90;;;;;;5114571;28;20019;-42
2023/10/06 01:09:30;;;;;;;;;;;14.90;99.90;;;;;;5114472;28;19927;-42
2023/10/06 01:11:57;;;;;;;;;;;14.90;99.90;;;;;;5114415;28;19947;-42
2023/10/06 01:14:33;;;;;;;;;;;14.90;99.90;;;;;;5114513;28;20382;-42
2023/10/06 01:17:15;;;;;;;;;;;14.90;99.90;;;;;;5114687;28;20010;-42
2023/10/06 01:19:47;;;;;;;;;;;14.90;99.90;;;;;;5117641;28;19930;-42
2023/10/06 01:22:27;;;;;;;;;;;14.90;99.90;;;;;;5118552;28;19924;-42
2023/10/06 01:24:53;;;;;;;;;;;14.90;99.90;;;;;;5117901;28;19988;-43
2023/10/06 01:27:19;;;;;;;;;;;14.90;99.90;;;;;;5118293;28;20020;-42
2023/10/06 01:29:45;;;;;;;;;;;14.90;99.90;;;;;;5118548;27;19923;-42
2023/10/06 01:32:11;;;;;;;;;;;14.90;99.90;;;;;;5118431;27;19931;-42
2023/10/06 01:34:39;;;;;;;;;;;14.90;99.90;;;;;;5118412;27;19924;-42
2023/10/06 01:37:07;;;;;;;;;;;14.90;99.90;;;;;;5118358;28;20032;-42
2023/10/06 01:39:36;;;;;;;;;;;14.90;99.90;;;;;;5118321;28;19924;-42
2023/10/06 01:42:16;;;;;;;;;;;14.90;99.90;;;;;;5118255;28;19924;-42
2023/10/06 01:44:42;;;;;;;;;;;14.90;99.90;;;;;;5118379;28;19923;-42
2023/10/06 01:47:08;;;;;;;;;;;14.90;99.90;;;;;;5117928;27;19930;-43
2023/10/06 01:49:34;;;;;;;;;;;14.90;99.90;;;;;;5117092;28;19924;-42
2023/10/06 01:52:02;;;;;;;;;;;14.90;99.90;;;;;;5118020;28;20428;-43
2023/10/06 01:54:27;;;;;;;;;;;14.90;99.90;;;;;;5116909;28;20430;-42
2023/10/06 01:56:54;;;;;;;;;;;14.90;99.90;;;;;;5117913;28;20015;-42
2023/10/06 01:59:20;;;;;;;;;;;14.90;99.90;;;;;;5116501;28;20014;-42
2023/10/06 02:01:46;;;;;;;;;;;14.90;99.90;;;;;;5117721;28;20369;-42
2023/10/06 02:04:14;;;;;;;;;;;14.80;99.90;;;;;;5118059;28;19930;-42
2023/10/06 02:06:47;;;;;;;;;;;14.90;99.90;;;;;;5118221;28;19927;-43
2023/10/06 02:09:16;;;;;;;;;;;14.80;99.90;;;;;;5117766;28;19924;-42
2023/10/06 02:11:42;;;;;;;;;;;14.90;99.90;;;;;;5116995;28;19931;-42
2023/10/06 02:14:10;;;;;;;;;;;14.90;99.90;;;;;;5117598;28;19924;-42
2023/10/06 02:16:38;;;;;;;;;;;14.90;99.90;;;;;;5116589;28;19924;-42
2023/10/06 02:19:15;;;;;;;;;;;14.90;99.90;;;;;;5117560;28;20010;-42
2023/10/06 02:21:44;;;;;;;;;;;14.90;99.90;;;;;;5100006;28;19924;-42
2023/10/06 02:24:12;;;;;;;;;;;14.90;99.90;;;;;;5117587;28;19927;-43
2023/10/06 02:26:38;;;;;;;;;;;14.90;99.90;;;;;;5117547;28;19924;-43
2023/10/06 02:29:11;;;;;;;;;;;14.90;99.90;;;;;;5116217;28;20310;-42
2023/10/06 02:31:36;;;;;;;;;;;14.90;99.90;;;;;;5117043;28;20298;-42
2023/10/06 02:34:04;;;;;;;;;;;14.90;99.90;;;;;;5116501;28;19924;-42
2023/10/06 02:36:31;;;;;;;;;;;15.00;99.90;;;;;;5117351;28;19994;-43
2023/10/06 02:38:56;;;;;;;;;;;14.90;99.90;;;;;;5117254;28;19930;-43
2023/10/06 02:41:29;;;;;;;;;;;15.00;99.90;;;;;;5117183;28;20455;-43
2023/10/06 02:43:55;;;;;;;;;;;15.00;99.90;;;;;;5117235;28;19928;-42
2023/10/06 02:46:22;;;;;;;;;;;14.90;99.90;;;;;;5116916;28;19924;-42
2023/10/06 02:48:51;;;;;;;;;;;15.00;99.90;;;;;;5116985;28;19924;-42
2023/10/06 02:51:18;;;;;;;;;;;15.00;99.90;;;;;;5116949;28;19952;-42
2023/10/06 02:53:49;;;;;;;;;;;15.00;99.90;;;;;;5116915;28;20294;-42
2023/10/06 02:56:16;;;;;;;;;;;15.00;99.90;;;;;;5116914;28;19924;-42
2023/10/06 02:58:42;;;;;;;;;;;14.90;99.90;;;;;;5116887;28;19969;-42
2023/10/06 03:01:11;;;;;;;;;;;14.90;99.90;;;;;;5116251;28;20023;-42
2023/10/06 03:03:36;;;;;;;;;;;14.90;99.90;;;;;;5116846;28;19924;-42
2023/10/06 03:06:07;;;;;;;;;;;14.90;99.90;;;;;;5116695;28;20060;-42
2023/10/06 03:08:35;;;;;;;;;;;14.90;99.90;;;;;;5116525;28;19931;-43
2023/10/06 03:11:01;;;;;;;;;;;14.90;99.90;;;;;;5116655;28;19931;-42
2023/10/06 03:13:33;;;;;;;;;;;14.90;99.90;;;;;;5116654;28;19931;-42
2023/10/06 03:16:00;;;;;;;;;;;14.90;99.90;;;;;;5116477;28;20018;-43
2023/10/06 03:18:26;;;;;;;;;;;14.90;99.90;;;;;;5116345;28;20072;-42
2023/10/06 03:21:05;;;;;;;;;;;14.90;99.90;;;;;;5116385;28;20268;-42
2023/10/06 03:23:38;;;;;;;;;;;14.90;99.90;;;;;;5116591;28;19924;-42
2023/10/06 03:26:09;;;;;;;;;;;14.90;99.90;;;;;;5115577;28;19931;-42
2023/10/06 03:28:42;;;;;;;;;;;14.90;99.90;;;;;;5115287;28;20383;-43
2023/10/06 03:33:44;;;;;;;;;;;14.90;99.90;;;;;;5116054;28;20329;-42
2023/10/06 03:36:10;;;;;;;;;;;14.90;99.90;;;;;;5116138;28;20263;-42
2023/10/06 03:38:36;;;;;;;;;;;14.90;99.90;;;;;;5115973;28;19930;-42
2023/10/06 03:41:18;;;;;;;;;;;14.90;99.90;;;;;;5115606;28;20291;-42
2023/10/06 03:43:50;;;;;;;;;;;14.90;99.90;;;;;;5116103;28;19931;-42
2023/10/06 03:46:19;;;;;;;;;;;14.90;99.90;;;;;;5115714;28;20018;-43
2023/10/06 03:48:48;;;;;;;;;;;14.90;99.90;;;;;;5115979;28;19977;-43
2023/10/06 03:51:16;;;;;;;;;;;14.90;99.90;;;;;;5115742;28;19927;-42
2023/10/06 03:53:41;;;;;;;;;;;14.90;99.90;;;;;;5115769;28;19931;-42
2023/10/06 03:56:08;;;;;;;;;;;14.90;99.90;;;;;;5115716;28;20386;-42
2023/10/06 03:58:34;;;;;;;;;;;14.80;99.90;;;;;;5115439;28;20018;-42
2023/10/06 04:01:07;;;;;;;;;;;14.80;99.90;;;;;;5115635;28;19966;-42
2023/10/06 04:03:33;;;;;;;;;;;14.80;99.90;;;;;;5115363;28;19974;-42
2023/10/06 04:05:59;;;;;;;;;;;14.80;99.90;;;;;;5115546;28;20371;-42
2023/10/06 04:08:24;;;;;;;;;;;14.80;99.90;;;;;;5115523;28;19970;-42
2023/10/06 04:10:58;;;;;;;;;;;14.80;99.90;;;;;;5115333;28;19927;-42
2023/10/06 04:13:26;;;;;;;;;;;14.80;99.90;;;;;;5114418;28;20286;-43
2023/10/06 04:15:53;;;;;;;;;;;14.80;99.90;;;;;;5115341;28;19923;-42
2023/10/06 04:18:22;;;;;;;;;;;14.80;99.90;;;;;;5115311;28;19923;-42
2023/10/06 04:20:49;;;;;;;;;;;14.80;99.90;;;;;;5115353;27;19923;-42
2023/10/06 04:23:16;;;;;;;;;;;14.80;99.90;;;;;;5115229;28;19930;-43
2023/10/06 04:25:43;;;;;;;;;;;14.80;99.90;;;;;;5115014;28;19959;-42
2023/10/06 04:28:09;;;;;;;;;;;14.80;99.90;;;;;;5115396;28;20463;-42
2023/10/06 04:30:35;;;;;;;;;;;14.80;99.90;;;;;;5115276;28;19945;-42
2023/10/06 04:33:03;;;;;;;;;;;14.80;99.90;;;;;;5115076;28;19924;-42
2023/10/06 04:35:32;;;;;;;;;;;14.80;99.90;;;;;;5115132;28;19974;-41
2023/10/06 04:37:59;;;;;;;;;;;14.80;99.90;;;;;;5114666;28;19924;-42
2023/10/06 04:40:24;;;;;;;;;;;14.80;99.90;;;;;;5114862;28;19924;-42
2023/10/06 04:42:50;;;;;;;;;;;14.70;99.90;;;;;;5114039;28;20014;-42
2023/10/06 04:45:15;;;;;;;;;;;14.80;99.90;;;;;;5114892;28;20329;-42
2023/10/06 04:47:41;;;;;;;;;;;14.70;99.90;;;;;;5114869;28;20327;-42
2023/10/06 04:50:09;;;;;;;;;;;14.70;99.90;;;;;;5114896;28;20342;-42
2023/10/06 04:52:35;;;;;;;;;;;14.70;99.90;;;;;;5114365;28;19984;-42
2023/10/06 04:55:03;;;;;;;;;;;14.70;99.90;;;;;;5114389;28;20409;-43
2023/10/06 04:57:29;;;;;;;;;;;14.70;99.90;;;;;;5113660;28;19931;-42
2023/10/06 04:59:54;;;;;;;;;;;14.70;99.90;;;;;;5114632;28;19924;-43
2023/10/06 05:02:22;;;;;;;;;;;14.70;99.90;;;;;;5114605;28;19934;-42
2023/10/06 05:04:47;;;;;;;;;;;14.70;99.90;;;;;;5113215;28;19924;-42
2023/10/06 05:07:13;;;;;;;;;;;14.70;99.90;;;;;;5114406;28;19934;-42
2023/10/06 05:09:40;;;;;;;;;;;14.70;99.90;;;;;;5114222;28;19923;-43
2023/10/06 05:12:05;;;;;;;;;;;14.70;99.90;;;;;;5114519;28;19986;-42
2023/10/06 05:14:34;;;;;;;;;;;14.70;99.90;;;;;;5113785;28;20370;-42
2023/10/06 05:16:59;;;;;;;;;;;14.70;99.90;;;;;;5113593;28;19996;-42
2023/10/06 05:19:26;;;;;;;;;;;14.70;99.90;;;;;;5114296;28;19928;-42
2023/10/06 05:21:53;;;;;;;;;;;14.70;99.90;;;;;;5114411;28;19924;-41
2023/10/06 05:24:18;;;;;;;;;;;14.70;99.90;;;;;;5114329;28;19924;-41
2023/10/06 05:26:44;;;;;;;;;;;14.70;99.90;;;;;;5114495;28;20385;-41
2023/10/06 05:29:14;;;;;;;;;;;14.70;99.90;;;;;;5114274;28;20400;-41
2023/10/06 05:31:40;;;;;;;;;;;14.70;99.90;;;;;;5114253;28;20390;-42
2023/10/06 05:34:07;;;;;;;;;;;14.70;99.90;;;;;;5114339;28;19924;-42
2023/10/06 05:36:33;;;;;;;;;;;14.70;99.90;;;;;;5113130;28;19924;-42
2023/10/06 05:38:59;;;;;;;;;;;14.60;99.90;;;;;;5113885;28;19931;-42
2023/10/06 05:41:32;;;;;;;;;;;14.60;99.90;;;;;;5114733;28;19924;-41
2023/10/06 05:43:58;;;;;;;;;;;14.60;99.90;;;;;;5114486;28;19924;-41
2023/10/06 05:46:24;;;;;;;;;;;14.60;99.90;;;;;;5114189;28;19930;-42
2023/10/06 05:48:51;;;;;;;;;;;14.50;99.90;;;;;;5114235;28;19928;-42
2023/10/06 05:51:21;;;;;;;;;;;14.50;99.90;;;;;;5113883;28;19930;-43
2023/10/06 05:53:48;;;;;;;;;;;14.50;99.90;;;;;;5114107;28;19924;-42
2023/10/06 05:56:18;;;;;;;;;;;14.50;99.90;;;;;;5114480;28;19981;-42
2023/10/06 05:58:43;;;;;;;;;;;14.50;99.90;;;;;;5113907;28;20398;-42
2023/10/06 06:01:18;;;;;;;;;;;14.50;99.90;;;;;;5113150;28;19975;-42
2023/10/06 06:03:47;;;;;;;;;;;14.50;99.90;;;;;;5114145;28;19924;-42
2023/10/06 06:06:14;;;;;;;;;;;14.50;99.90;;;;;;5117785;28;19927;-41
2023/10/06 06:08:43;;;;;;;;;;;14.50;99.90;;;;;;5117807;28;19944;-42
2023/10/06 06:11:09;;;;;;;;;;;14.50;99.90;;;;;;5118040;28;20336;-42
2023/10/06 06:13:38;;;;;;;;;;;14.50;99.90;;;;;;5117651;28;19924;-41
2023/10/06 06:16:05;;;;;;;;;;;14.50;99.90;;;;;;5117603;28;20386;-41
2023/10/06 06:18:31;;;;;;;;;;;14.50;99.90;;;;;;5117437;28;20018;-42
2023/10/06 06:20:58;;;;;;;;;;;14.60;99.90;;;;;;5117663;28;19923;-42
2023/10/06 06:23:25;;;;;;;;;;;14.60;99.90;;;;;;5117523;28;19979;-42
2023/10/06 06:25:51;;;;;;;;;;;14.60;99.90;;;;;;5117388;28;19924;-42
2023/10/06 06:28:16;;;;;;;;;;;14.60;99.90;;;;;;5117380;28;19977;-42
2023/10/06 06:30:42;;;;;;;;;;;14.60;99.90;;;;;;5117314;28;19974;-41
2023/10/06 06:33:08;;;;;;;;;;;14.60;99.90;;;;;;5117184;28;19989;-42
2023/10/06 06:35:35;;;;;;;;;;;14.60;99.90;;;;;;5117343;28;20000;-42
2023/10/06 06:38:01;;;;;;;;;;;14.60;99.90;;;;;;5117247;28;19983;-41
2023/10/06 06:40:28;;;;;;;;;;;14.70;99.90;;;;;;5099710;28;20272;-42
2023/10/06 06:42:55;;;;;;;;;;;14.70;99.90;;;;;;5117036;28;20039;-42
2023/10/06 06:45:24;;;;;;;;;;;14.70;99.90;;;;;;5116887;28;19973;-42
2023/10/06 06:47:50;;;;;;;;;;;14.70;99.90;;;;;;5116919;28;20405;-41
2023/10/06 06:50:17;;;;;;;;;;;14.70;99.90;;;;;;5117139;28;19945;-42
2023/10/06 06:52:42;;;;;;;;;;;14.70;99.90;;;;;;5117138;28;19931;-41
2023/10/06 06:55:20;;;;;;;;;;;14.70;99.90;;;;;;5116989;28;20291;-41
2023/10/06 06:57:48;;;;;;;;;;;14.70;99.90;;;;;;5116921;28;19971;-42
2023/10/06 07:00:17;;;;;;;;;;;14.70;99.90;;;;;;5116613;28;19927;-42
2023/10/06 07:02:44;;;;;;;;;;;14.70;99.90;;;;;;5116627;28;19979;-43
2023/10/06 07:05:10;;;;;;;;;;;14.70;99.90;;;;;;5117063;28;20285;-41
2023/10/06 07:07:37;;;;;;;;;;;14.70;99.90;;;;;;5116746;28;19937;-41
2023/10/06 07:10:06;;;;;;;;;;;14.70;99.90;;;;;;5116687;28;20336;-41
2023/10/06 07:12:32;;;;;;;;;;;14.80;99.90;;;;;;5116493;28;19946;-41
2023/10/06 07:14:57;;;;;;;;;;;14.80;99.90;;;;;;5116460;28;19923;-41
2023/10/06 07:17:24;;;;;;;;;;;14.80;99.90;;;;;;5115989;28;19930;-42
2023/10/06 07:19:50;;;;;;;;;;;14.80;99.90;;;;;;5116290;28;19928;-41
2023/10/06 07:22:16;;;;;;;;;;;14.90;99.90;;;;;;5116326;28;20035;-42
2023/10/06 07:24:41;;;;;;;;;;;14.90;99.90;;;;;;5116323;28;19924;-41
2023/10/06 07:27:08;;;;;;;;;;;15.00;99.90;;;;;;5116337;27;19924;-41
2023/10/06 07:29:33;;;;;;;;;;;15.00;99.90;;;;;;5115005;28;19924;-42
2023/10/06 07:32:00;;;;;;;;;;;15.00;99.90;;;;;;5116299;28;20286;-42
2023/10/06 07:34:27;;;;;;;;;;;15.00;99.90;;;;;;5116228;28;20286;-41
2023/10/06 07:36:53;;;;;;;;;;;15.00;99.90;;;;;;5116526;28;19977;-42
2023/10/06 07:39:20;;;;;;;;;;;15.00;99.90;;;;;;5115982;28;20324;-42
2023/10/06 07:41:46;;;;;;;;;;;15.00;99.90;;;;;;5115951;28;19923;-42
2023/10/06 07:44:12;;;;;;;;;;;15.00;99.90;;;;;;5115799;28;20470;-41
2023/10/06 07:46:37;;;;;;;;;;;15.10;99.90;;;;;;5115975;28;20286;-40
2023/10/06 07:49:04;;;;;;;;;;;15.00;99.90;;;;;;5115969;28;19923;-41
2023/10/06 07:51:33;;;;;;;;;;;15.10;99.90;;;;;;5115749;28;20484;-41
2023/10/06 07:53:59;;;;;;;;;;;15.10;99.90;;;;;;5115752;27;19931;-41
2023/10/06 07:56:26;;;;;;;;;;;15.00;99.90;;;;;;5115692;28;20255;-41
2023/10/06 07:58:52;;;;;;;;;;;15.00;99.90;;;;;;5115927;28;20271;-41
2023/10/06 08:01:21;;;;;;;;;;;15.00;99.90;;;;;;5114467;28;19924;-41
2023/10/06 08:03:47;;;;;;;;;;;15.00;99.90;;;;;;5115371;28;19924;-41
2023/10/06 08:06:13;;;;;;;;;;;15.00;99.90;;;;;;5114447;28;19924;-41
2023/10/06 08:08:39;;;;;;;;;;;15.10;99.90;;;;;;5115457;28;19931;-41
2023/10/06 08:11:06;;;;;;;;;;;15.00;99.90;;;;;;5115273;28;19923;-42
2023/10/06 08:13:33;;;;;;;;;;;15.10;99.90;;;;;;5115461;28;20023;-41
2023/10/06 08:15:59;;;;;;;;;;;15.10;99.90;;;;;;5115451;28;19931;-41
2023/10/06 08:18:29;;;;;;;;;;;15.10;99.90;;;;;;5115399;28;20366;-41
2023/10/06 08:20:55;;;;;;;;;;;15.20;99.90;;;;;;5115160;27;20295;-42
2023/10/06 08:23:21;;;;;;;;;;;15.20;99.90;;;;;;5115139;28;20382;-41
2023/10/06 08:25:46;;;;;;;;;;;15.20;99.90;;;;;;5115066;28;20018;-41
2023/10/06 08:28:12;;;;;;;;;;;15.20;99.90;;;;;;5114293;28;19924;-42
2023/10/06 08:30:38;;;;;;;;;;;15.20;99.90;;;;;;5115177;28;19984;-41
2023/10/06 08:33:04;;;;;;;;;;;15.30;99.90;;;;;;5114987;28;19931;-42
2023/10/06 08:35:30;;;;;;;;;;;15.30;99.90;;;;;;5115103;28;19928;-42
2023/10/06 08:37:56;;;;;;;;;;;15.30;99.90;;;;;;5115004;28;19947;-41
2023/10/06 08:40:26;;;;;;;;;;;15.30;99.90;;;;;;5114777;28;19993;-42
2023/10/06 08:42:56;;;;;;;;;;;15.40;99.90;;;;;;5113782;28;19946;-41
2023/10/06 08:45:22;;;;;;;;;;;15.40;99.90;;;;;;5114870;28;19924;-41
2023/10/06 08:47:52;;;;;;;;;;;15.50;99.90;;;;;;5114634;28;20375;-41
2023/10/06 08:50:22;;;;;;;;;;;15.50;99.90;;;;;;5114878;28;19923;-41
2023/10/06 08:52:52;;;;;;;;;;;15.50;99.90;;;;;;5114854;28;19924;-41
2023/10/06 08:55:18;;;;;;;;;;;15.60;99.90;;;;;;5114767;28;19928;-41
2023/10/06 08:57:47;;;;;;;;;;;15.60;99.90;;;;;;5114683;28;20014;-41
2023/10/06 09:00:17;;;;;;;;;;;15.70;99.90;;;;;;5114760;28;19928;-41
2023/10/06 09:02:44;;;;;;;;;;;15.70;99.90;;;;;;5114363;28;20366;-42
2023/10/06 09:05:18;;;;;;;;;;;15.70;99.90;;;;;;5114686;28;19923;-41
2023/10/06 09:07:56;;;;;;;;;;;15.80;99.90;;;;;;5114650;28;19923;-41
2023/10/06 09:10:22;;;;;;;;;;;15.80;99.90;;;;;;5114495;28;19930;-41
2023/10/06 09:13:01;;;;;;;;;;;15.80;99.90;;;;;;5114575;28;19924;-42
2023/10/06 09:15:28;;;;;;;;;;;15.90;99.90;;;;;;5114533;28;20379;-42
2023/10/06 09:17:53;;;;;;;;;;;15.90;99.90;;;;;;5114174;28;19923;-42
2023/10/06 09:20:37;;;;;;;;;;;16.00;99.90;;;;;;5114601;28;19934;-42
2023/10/06 09:23:03;;;;;;;;;;;16.10;99.90;;;;;;5114854;28;19924;-41
2023/10/06 09:25:47;;;;;;;;;;;16.10;99.90;;;;;;5114384;28;19929;-42
2023/10/06 09:28:17;;;;;;;;;;;16.10;99.90;;;;;;5114405;28;19923;-42
2023/10/06 09:31:01;;;;;;;;;;;16.20;99.90;;;;;;5114279;28;19924;-41
2023/10/06 09:33:36;;;;;;;;;;;16.30;99.90;;;;;;5113516;28;19924;-42
2023/10/06 09:36:10;;;;;;;;;;;16.30;99.90;;;;;;5114246;28;19963;-42
2023/10/06 09:38:40;;;;;;;;;;;16.40;99.90;;;;;;5114229;28;20463;-41
2023/10/06 09:41:07;;;;;;;;;;;16.40;99.90;;;;;;5117704;28;19928;-42
2023/10/06 09:43:34;;;;;;;;;;;16.40;99.90;;;;;;5118390;28;19971;-42
2023/10/06 09:46:13;;;;;;;;;;;16.50;99.90;;;;;;5118271;28;19927;-41
2023/10/06 09:48:40;;;;;;;;;;;16.60;99.90;;;;;;5118451;28;19928;-42
2023/10/06 09:51:06;;;;;;;;;;;16.70;99.90;;;;;;5116913;28;19930;-41
2023/10/06 09:53:38;;;;;;;;;;;16.80;99.90;;;;;;5118131;28;19924;-41
2023/10/06 09:56:11;;;;;;;;;;;16.80;99.90;;;;;;5118216;27;19931;-42
2023/10/06 09:58:38;;;;;;;;;;;16.80;99.90;;;;;;5118305;28;20014;-41
2023/10/06 10:01:04;;;;;;;;;;;16.80;99.90;;;;;;5117992;28;20290;-41
2023/10/06 10:03:30;;;;;;;;;;;16.90;99.90;;;;;;5117976;28;19924;-41
2023/10/06 10:05:57;;;;;;;;;;;16.90;99.90;;;;;;5117685;28;20387;-42
2023/10/06 10:08:23;;;;;;;;;;;17.00;99.90;;;;;;5117700;28;20282;-41
2023/10/06 10:10:52;;;;;;;;;;;17.00;99.90;;;;;;5118017;27;19924;-42
2023/10/06 10:13:36;;;;;;;;;;;17.10;99.90;;;;;;5117780;28;19977;-42
2023/10/06 10:16:04;;;;;;;;;;;17.10;99.90;;;;;;5117671;28;20018;-41
2023/10/06 10:18:38;;;;;;;;;;;17.10;99.90;;;;;;5117408;28;20071;-42
2023/10/06 10:21:05;;;;;;;;;;;17.20;99.90;;;;;;5117663;28;19931;-43
2023/10/06 10:23:30;;;;;;;;;;;17.20;99.90;;;;;;5117630;27;20374;-41
2023/10/06 10:26:14;;;;;;;;;;;17.30;99.90;;;;;;5117466;28;19930;-41
2023/10/06 10:28:40;;;;;;;;;;;17.40;99.90;;;;;;5117549;28;20014;-41
2023/10/06 10:31:13;;;;;;;;;;;17.40;99.90;;;;;;5117282;28;20032;-41
2023/10/06 10:33:39;;;;;;;;;;;17.50;99.90;;;;;;5117466;28;19924;-41
2023/10/06 10:36:17;;;;;;;;;;;17.50;99.90;;;;;;5117438;28;20416;-41
2023/10/06 10:38:43;;;;;;;;;;;17.60;99.90;;;;;;5117147;28;19924;-41
2023/10/06 10:41:09;;;;;;;;;;;17.60;99.90;;;;;;5117104;28;20302;-41
2023/10/06 10:43:40;;;;;;;;;;;17.60;99.90;;;;;;5117073;28;19923;-42
2023/10/06 10:46:08;;;;;;;;;;;17.70;99.90;;;;;;5117142;28;19989;-41
2023/10/06 10:48:37;;;;;;;;;;;17.60;99.90;;;;;;5117139;28;19923;-41
2023/10/06 10:51:12;;;;;;;;;;;17.70;99.90;;;;;;5115877;28;19924;-41
2023/10/06 10:53:44;;;;;;;;;;;17.70;99.90;;;;;;5116865;28;19924;-41
2023/10/06 10:56:13;;;;;;;;;;;17.70;99.90;;;;;;5116895;28;20014;-41
2023/10/06 10:58:45;;;;;;;;;;;17.70;99.90;;;;;;5115871;28;19928;-42
2023/10/06 11:01:32;;;;;;;;;;;17.80;99.90;;;;;;5116829;28;19987;-41
2023/10/06 11:04:13;;;;;;;;;;;17.80;99.90;;;;;;5116441;28;19924;-43
2023/10/06 11:06:42;;;;;;;;;;;17.90;99.90;;;;;;5116069;27;21655;-41
2023/10/06 11:09:36;;;;;;;;;;;17.90;99.90;;;;;;5116750;28;19927;-41
2023/10/06 11:12:19;;;;;;;;;;;17.90;99.90;;;;;;5116608;28;19923;-42
2023/10/06 11:14:45;;;;;;;;;;;18.10;99.90;;;;;;5116517;28;19930;-41
2023/10/06 11:17:12;;;;;;;;;;;18.20;99.90;;;;;;5115593;28;19931;-41
2023/10/06 11:19:38;;;;;;;;;;;18.20;99.90;;;;;;5116564;28;19975;-42
2023/10/06 11:22:10;;;;;;;;;;;18.30;99.90;;;;;;5116653;28;19928;-42
2023/10/06 11:24:36;;;;;;;;;;;18.40;99.90;;;;;;5116431;28;19924;-41
2023/10/06 11:27:14;;;;;;;;;;;18.40;99.90;;;;;;5116384;28;20342;-41
2023/10/06 11:29:40;;;;;;;;;;;18.40;99.90;;;;;;5116400;28;19923;-42
2023/10/06 11:32:06;;;;;;;;;;;18.50;99.90;;;;;;5116301;27;20019;-42
2023/10/06 11:34:31;;;;;;;;;;;18.50;99.90;;;;;;5116301;28;20362;-41
2023/10/06 11:36:57;;;;;;;;;;;18.50;99.90;;;;;;5116281;28;19923;-42
2023/10/06 11:39:23;;;;;;;;;;;18.50;99.90;;;;;;5115860;28;19924;-41
2023/10/06 11:41:54;;;;;;;;;;;18.50;99.90;;;;;;5115908;28;19974;-42
2023/10/06 11:44:19;;;;;;;;;;;18.60;99.90;;;;;;5116082;28;19984;-42
2023/10/06 11:46:49;;;;;;;;;;;18.60;99.90;;;;;;5115252;28;19924;-42
2023/10/06 11:49:19;;;;;;;;;;;18.70;99.90;;;;;;5115941;28;20370;-42
2023/10/06 11:51:44;;;;;;;;;;;18.70;99.90;;;;;;5115912;28;19985;-41
2023/10/06 11:54:10;;;;;;;;;;;18.70;99.90;;;;;;5115665;28;19934;-41
2023/10/06 11:56:49;;;;;;;;;;;18.80;99.90;;;;;;5115790;28;19949;-42
2023/10/06 11:59:18;;;;;;;;;;;18.80;99.90;;;;;;5115805;27;19931;-41
2023/10/06 12:01:45;;;;;;;;;;;18.90;99.90;;;;;;5116103;28;20384;-43
2023/10/06 12:04:26;;;;;;;;;;;19.00;99.90;;;;;;5115345;28;19924;-41
2023/10/06 12:06:51;;;;;;;;;;;19.10;99.90;;;;;;5115416;28;19924;-41
2023/10/06 12:09:24;;;;;;;;;;;19.20;99.90;;;;;;5115238;28;19924;-42
2023/10/06 12:11:50;;;;;;;;;;;19.20;99.90;;;;;;5115536;28;19938;-41
2023/10/06 12:14:15;;;;;;;;;;;19.30;99.90;;;;;;5114546;28;20345;-41
2023/10/06 12:16:44;;;;;;;;;;;19.20;99.90;;;;;;5115392;28;19924;-41
2023/10/06 12:19:11;;;;;;;;;;;19.30;99.90;;;;;;5115304;28;20023;-42
2023/10/06 12:21:37;;;;;;;;;;;19.30;99.90;;;;;;5115189;28;19967;-41
2023/10/06 12:24:02;;;;;;;;;;;19.40;99.90;;;;;;5115329;28;20404;-41
2023/10/06 12:26:28;;;;;;;;;;;19.50;99.90;;;;;;5115128;28;19923;-42
2023/10/06 12:28:54;;;;;;;;;;;19.50;99.90;;;;;;5115103;27;19931;-42
2023/10/06 12:31:19;;;;;;;;;;;19.60;99.90;;;;;;5115003;28;19928;-41
2023/10/06 12:33:45;;;;;;;;;;;19.60;99.90;;;;;;5115027;28;19927;-41
2023/10/06 12:36:12;;;;;;;;;;;19.60;99.90;;;;;;5114095;28;20021;-42
2023/10/06 12:38:40;;;;;;;;;;;19.60;99.90;;;;;;5113727;28;20428;-42
2023/10/06 12:41:07;;;;;;;;;;;19.60;99.90;;;;;;5115005;28;19966;-42
2023/10/06 12:43:35;;;;;;;;;;;19.60;99.90;;;;;;5114002;28;19924;-41
2023/10/06 12:46:03;;;;;;;;;;;19.60;99.90;;;;;;5114805;28;20503;-41
2023/10/06 12:48:30;;;;;;;;;;;19.70;99.90;;;;;;5114872;28;19924;-41
2023/10/06 12:50:56;;;;;;;;;;;19.50;99.90;;;;;;5114490;28;19927;-42
2023/10/06 12:53:22;;;;;;;;;;;19.50;99.90;;;;;;5114564;28;19924;-42
2023/10/06 12:55:56;;;;;;;;;;;19.40;99.90;;;;;;5114972;28;19931;-42
2023/10/06 12:58:22;;;;;;;;;;;19.30;99.90;;;;;;5114616;28;19923;-41
2023/10/06 13:00:47;;;;;;;;;;;19.20;99.90;;;;;;5113504;28;19931;-42
2023/10/06 13:03:16;;;;;;;;;;;19.20;99.90;;;;;;5114509;28;19934;-43
2023/10/06 13:05:43;;;;;;;;;;;19.10;99.90;;;;;;5114329;28;20390;-42
2023/10/06 13:08:09;;;;;;;;;;;19.10;99.90;;;;;;5114983;28;19978;-41
2023/10/06 13:10:35;;;;;;;;;;;19.00;99.90;;;;;;5114588;28;20037;-42
2023/10/06 13:13:06;;;;;;;;;;;18.90;99.90;;;;;;5114658;28;20475;-41
2023/10/06 13:15:31;;;;;;;;;;;18.90;99.90;;;;;;5113902;28;20011;-41
2023/10/06 13:17:57;;;;;;;;;;;18.90;99.90;;;;;;5114268;28;19969;-42
2023/10/06 13:20:23;;;;;;;;;;;18.80;99.90;;;;;;5114500;28;20028;-42
2023/10/06 13:22:48;;;;;;;;;;;18.80;99.90;;;;;;5114434;28;20268;-42
2023/10/06 13:25:14;;;;;;;;;;;18.80;99.90;;;;;;5114558;28;19924;-41
2023/10/06 13:27:41;;;;;;;;;;;18.70;99.90;;;;;;5114456;28;19931;-42
2023/10/06 13:30:13;;;;;;;;;;;18.80;99.90;;;;;;5114399;28;19928;-42
2023/10/06 13:32:42;;;;;;;;;;;18.80;99.90;;;;;;5114171;28;19924;-42
2023/10/06 13:35:11;;;;;;;;;;;18.80;99.90;;;;;;5114463;28;20026;-42
2023/10/06 13:37:38;;;;;;;;;;;18.80;99.90;;;;;;5114617;28;20324;-42
2023/10/06 13:40:10;;;;;;;;;;;18.80;99.90;;;;;;5114286;28;20282;-43
2023/10/06 13:42:39;;;;;;;;;;;18.90;99.90;;;;;;5114386;28;19930;-42
2023/10/06 13:45:12;;;;;;;;;;;18.90;99.90;;;;;;5114020;28;19924;-42
2023/10/06 13:47:39;;;;;;;;;;;18.80;99.90;;;;;;5114324;28;19931;-42
2023/10/06 13:50:05;;;;;;;;;;;18.90;99.90;;;;;;5114352;28;19948;-41
2023/10/06 13:52:30;;;;;;;;;;;18.80;99.90;;;;;;5114217;28;20381;-42
2023/10/06 13:54:56;;;;;;;;;;;18.80;99.90;;;;;;5114092;28;19923;-43
2023/10/06 13:57:22;;;;;;;;;;;18.80;99.90;;;;;;5114144;28;19924;-41
2023/10/06 13:59:47;;;;;;;;;;;18.70;99.90;;;;;;5113931;28;20382;-42
2023/10/06 14:02:13;;;;;;;;;;;18.70;99.90;;;;;;5114423;28;20375;-42
2023/10/06 14:04:39;;;;;;;;;;;18.70;99.90;;;;;;5113976;28;20031;-42
2023/10/06 14:07:06;;;;;;;;;;;18.60;99.90;;;;;;5114073;28;19969;-41
2023/10/06 14:09:31;;;;;;;;;;;18.60;99.90;;;;;;5113929;28;20026;-41
2023/10/06 14:11:57;;;;;;;;;;;18.60;99.90;;;;;;5113857;28;20394;-42
2023/10/06 14:14:54;;;;;;;;;;;18.60;99.90;;;;;;5113578;28;19931;-43
2023/10/06 14:17:16;;;;;;;;;;;18.60;99.90;;;;;;5113918;28;19931;-42
2023/10/06 14:19:43;;;;;;;;;;;18.50;99.90;;;;;;5112743;28;19931;-41
2023/10/06 14:22:09;;;;;;;;;;;18.50;99.90;;;;;;5113917;28;19963;-41
2023/10/06 14:24:39;;;;;;;;;;;18.60;99.90;;;;;;5112846;28;20013;-42
2023/10/06 14:27:11;;;;;;;;;;;18.50;99.90;;;;;;5115522;28;20011;-42
2023/10/06 14:29:36;;;;;;;;;;;18.60;99.90;;;;;;5117614;28;19924;-42